createdAt,value
2023-01-18T00:09:24.932Z,35.45
2023-01-18T00:11:52.026Z,34.92
2023-01-18T00:14:19.186Z,33.40
2023-01-18T00:16:46.319Z,30.92
2023-01-18T00:19:14.060Z,31.38
2023-01-18T00:21:41.147Z,30.73
2023-01-18T00:24:14.970Z,34.05
2023-01-18T00:26:42.947Z,33.78
2023-01-18T00:29:10.400Z,38.33
2023-01-18T00:31:37.839Z,37.08
2023-01-18T00:34:05.571Z,38.88
2023-01-18T00:36:32.738Z,35.00
2023-01-18T00:39:00.254Z,35.45
2023-01-18T00:41:27.487Z,31.73
2023-01-18T00:43:54.963Z,32.83
2023-01-18T00:46:23.657Z,31.92
2023-01-18T00:48:51.381Z,31.13
2023-01-18T00:51:20.290Z,33.25
2023-01-18T00:53:47.738Z,31.42
2023-01-18T00:56:16.440Z,29.98
2023-01-18T00:58:43.717Z,31.73
2023-01-18T01:01:11.619Z,32.47
2023-01-18T01:04:11.226Z,32.05
2023-01-18T01:06:45.078Z,31.83
2023-01-18T01:09:13.633Z,29.73
2023-01-18T01:12:00.811Z,29.02
2023-01-18T01:14:46.941Z,28.83
2023-01-18T01:17:32.965Z,26.77
2023-01-18T01:20:18.763Z,28.90
2023-01-18T01:23:04.820Z,28.45
2023-01-18T01:25:50.703Z,27.48
2023-01-18T01:28:17.898Z,28.63
2023-01-18T01:30:45.429Z,29.58
2023-01-18T01:33:12.664Z,25.92
2023-01-18T01:35:39.985Z,27.98
2023-01-18T01:38:07.135Z,26.42
2023-01-18T01:40:34.249Z,26.52
2023-01-18T01:43:01.656Z,25.40
2023-01-18T01:45:31.675Z,25.13
2023-01-18T01:47:58.962Z,24.33
2023-01-18T01:50:31.724Z,25.63
2023-01-18T01:52:59.115Z,25.48
2023-01-18T01:55:31.784Z,24.55
2023-01-18T01:58:04.535Z,25.95
2023-01-18T02:00:31.896Z,24.52
2023-01-18T02:03:04.186Z,24.30
2023-01-18T02:05:32.609Z,24.88
2023-01-18T02:08:01.341Z,23.50
2023-01-18T02:10:29.224Z,23.30
2023-01-18T02:12:58.076Z,23.85
2023-01-18T02:15:31.762Z,24.42
2023-01-18T02:17:58.868Z,26.45
2023-01-18T02:20:44.540Z,26.90
2023-01-18T02:23:14.786Z,27.23
2023-01-18T02:25:58.234Z,26.17
2023-01-18T02:28:30.462Z,28.45
2023-01-18T02:30:57.543Z,28.90
2023-01-18T02:33:43.375Z,26.33
2023-01-18T02:36:11.834Z,28.98
2023-01-18T02:38:44.441Z,28.20
2023-01-18T02:41:14.686Z,27.17
2023-01-18T02:44:01.732Z,28.38
2023-01-18T02:46:38.683Z,28.13
2023-01-18T02:49:11.257Z,29.02
2023-01-18T02:51:38.925Z,27.70
2023-01-18T02:54:07.979Z,28.67
2023-01-18T02:56:37.992Z,28.42
2023-01-18T02:59:08.869Z,28.42
2023-01-18T03:01:36.434Z,25.30
2023-01-18T03:04:23.947Z,28.52
2023-01-18T03:06:57.271Z,26.98
2023-01-18T03:09:27.374Z,28.55
2023-01-18T03:11:54.637Z,28.45
2023-01-18T03:14:43.077Z,28.17
2023-01-18T03:17:10.126Z,26.25
2023-01-18T03:20:02.012Z,27.52
2023-01-18T03:22:49.177Z,28.58
2023-01-18T03:25:18.345Z,27.70
2023-01-18T03:28:05.560Z,26.10
2023-01-18T03:30:52.244Z,27.70
2023-01-18T03:33:40.070Z,28.10
2023-01-18T03:36:09.597Z,27.15
2023-01-18T03:38:37.675Z,25.67
2023-01-18T03:41:05.394Z,27.63
2023-01-18T03:43:37.907Z,27.73
2023-01-18T03:46:08.051Z,27.77
2023-01-18T03:48:36.590Z,26.05
2023-01-18T03:51:11.146Z,28.38
2023-01-18T03:53:40.650Z,26.55
2023-01-18T03:56:11.021Z,26.52
2023-01-18T03:58:38.181Z,26.77
2023-01-18T04:01:05.656Z,28.23
2023-01-18T04:03:33.540Z,27.55
2023-01-18T04:06:03.229Z,27.40
2023-01-18T04:08:30.371Z,27.17
2023-01-18T04:10:57.551Z,28.80
2023-01-18T04:13:24.678Z,28.98
2023-01-18T04:15:51.767Z,24.25
2023-01-18T04:18:19.042Z,26.50
2023-01-18T04:20:46.117Z,25.27
2023-01-18T04:23:13.188Z,24.48
2023-01-18T04:25:40.994Z,23.83
2023-01-18T04:28:08.110Z,26.00
2023-01-18T04:30:35.176Z,28.23
2023-01-18T04:33:02.373Z,25.58
2023-01-18T04:35:29.496Z,24.90
2023-01-18T04:37:56.598Z,24.90
2023-01-18T04:40:23.796Z,25.13
2023-01-18T04:42:57.441Z,23.77
2023-01-18T04:45:24.814Z,23.92
2023-01-18T04:47:51.904Z,23.20
2023-01-18T04:50:19.004Z,23.48
2023-01-18T04:52:46.181Z,24.90
2023-01-18T04:55:15.810Z,24.80
2023-01-18T04:57:43.391Z,23.58
2023-01-18T05:00:11.585Z,21.90
2023-01-18T05:02:38.856Z,22.20
2023-01-18T05:05:06.493Z,23.20
2023-01-18T05:07:34.452Z,23.13
2023-01-18T05:10:01.788Z,22.50
2023-01-18T05:12:29.572Z,24.80
2023-01-18T05:14:56.914Z,24.25
2023-01-18T05:17:27.572Z,19.80
2023-01-18T05:19:55.188Z,20.08
2023-01-18T05:22:22.949Z,22.98
2023-01-18T05:24:50.047Z,23.25
2023-01-18T05:27:17.231Z,23.40
2023-01-18T05:29:44.396Z,23.92
2023-01-18T05:32:11.737Z,21.92
2023-01-18T05:34:38.850Z,22.33
2023-01-18T05:37:06.017Z,21.17
2023-01-18T05:39:33.159Z,21.00
2023-01-18T05:42:00.422Z,20.35
2023-01-18T05:44:27.747Z,20.75
2023-01-18T05:46:54.901Z,21.85
2023-01-18T05:49:22.112Z,20.00
2023-01-18T05:51:49.280Z,23.77
2023-01-18T05:54:16.393Z,26.88
2023-01-18T05:56:43.499Z,30.42
2023-01-18T05:59:10.727Z,29.38
2023-01-18T06:01:37.826Z,29.77
2023-01-18T06:04:04.983Z,27.20
2023-01-18T06:06:33.927Z,26.05
2023-01-18T06:09:01.985Z,23.90
2023-01-18T06:11:29.094Z,24.65
2023-01-18T06:13:56.263Z,21.15
2023-01-18T06:16:24.569Z,22.58
2023-01-18T06:18:51.694Z,24.35
2023-01-18T06:21:18.982Z,22.85
2023-01-18T06:23:46.074Z,27.63
2023-01-18T06:26:13.196Z,24.50
2023-01-18T06:28:40.375Z,27.58
2023-01-18T06:31:08.429Z,25.67
2023-01-18T06:33:35.578Z,22.67
2023-01-18T06:36:02.910Z,22.45
2023-01-18T06:38:30.848Z,26.80
2023-01-18T06:40:58.403Z,27.55
2023-01-18T06:43:25.662Z,24.27
2023-01-18T06:45:56.237Z,22.23
2023-01-18T06:48:24.161Z,25.20
2023-01-18T06:50:54.879Z,24.77
2023-01-18T06:53:22.137Z,25.90
2023-01-18T06:55:56.986Z,24.15
2023-01-18T06:58:25.857Z,27.00
2023-01-18T07:00:56.688Z,28.08
2023-01-18T07:03:24.448Z,28.73
2023-01-18T07:05:53.210Z,30.10
2023-01-18T07:08:21.093Z,30.15
2023-01-18T07:10:52.804Z,29.48
2023-01-18T07:13:20.690Z,22.20
2023-01-18T07:15:54.109Z,26.10
2023-01-18T07:18:21.307Z,27.30
2023-01-18T07:20:56.137Z,25.95
2023-01-18T07:23:23.265Z,25.00
2023-01-18T07:25:50.336Z,24.00
2023-01-18T07:28:17.975Z,25.63
2023-01-18T07:30:45.152Z,23.17
2023-01-18T07:33:12.406Z,23.67
2023-01-18T07:35:39.485Z,27.80
2023-01-18T07:38:06.670Z,19.63
2023-01-18T07:40:34.049Z,24.33
2023-01-18T07:43:02.783Z,18.58
2023-01-18T07:45:30.066Z,22.73
2023-01-18T07:47:57.242Z,22.42
2023-01-18T07:50:24.349Z,22.00
2023-01-18T07:52:51.485Z,24.33
2023-01-18T07:55:19.360Z,28.38
2023-01-18T07:57:46.427Z,29.17
2023-01-18T08:00:14.779Z,27.38
2023-01-18T08:02:41.904Z,26.25
2023-01-18T11:15:15.078Z,18.38
2023-01-18T11:17:54.606Z,18.52
2023-01-18T11:20:30.267Z,16.98
2023-01-18T11:23:02.128Z,17.23
2023-01-18T11:25:36.910Z,17.52
2023-01-18T11:28:04.651Z,16.88
2023-01-18T11:30:31.737Z,17.42
2023-01-18T11:33:00.597Z,14.93
2023-01-18T11:35:31.471Z,15.25
2023-01-18T11:38:00.265Z,16.05
2023-01-18T11:40:28.859Z,16.88
2023-01-18T11:43:03.605Z,15.48
2023-01-18T11:45:34.241Z,15.13
2023-01-18T11:48:13.322Z,14.82
2023-01-18T11:50:46.596Z,15.63
2023-01-18T11:53:17.574Z,15.27
2023-01-18T11:55:57.919Z,17.58
2023-01-18T11:58:28.642Z,14.55
2023-01-18T12:01:16.111Z,14.25
2023-01-18T12:04:02.804Z,13.98
2023-01-18T12:06:30.055Z,14.18
2023-01-18T12:09:03.934Z,12.02
2023-01-18T12:11:45.768Z,12.80
2023-01-18T12:14:22.262Z,12.93
2023-01-18T12:17:04.467Z,12.57
2023-01-18T12:19:41.687Z,12.10
2023-01-18T12:22:17.938Z,11.35
2023-01-18T12:24:54.135Z,12.48
2023-01-18T12:27:34.927Z,11.55
2023-01-18T12:30:09.283Z,10.68
2023-01-18T12:32:45.240Z,10.85
2023-01-18T12:35:23.787Z,12.48
2023-01-18T12:37:52.081Z,11.23
2023-01-18T12:40:28.186Z,12.40
2023-01-18T12:42:55.350Z,11.45
2023-01-18T12:45:22.643Z,11.02
2023-01-18T12:47:55.124Z,11.63
2023-01-18T12:50:25.358Z,11.48
2023-01-18T12:53:00.877Z,12.57
2023-01-18T12:55:31.554Z,11.38
2023-01-18T12:58:00.676Z,11.25
2023-01-18T13:00:41.298Z,11.88
2023-01-18T13:03:13.074Z,11.87
2023-01-18T13:05:51.123Z,13.07
2023-01-18T13:08:40.048Z,12.60
2023-01-18T13:11:14.863Z,12.10
2023-01-18T13:13:44.923Z,12.60
2023-01-18T13:16:24.477Z,12.05
2023-01-18T13:18:55.470Z,12.30
2023-01-18T13:21:27.676Z,12.32
2023-01-18T13:24:11.429Z,13.90
2023-01-18T13:26:38.657Z,12.27
2023-01-18T13:29:08.492Z,11.88
2023-01-18T13:31:35.660Z,11.50
2023-01-18T13:34:03.558Z,12.07
2023-01-18T13:36:44.631Z,12.15
2023-01-18T13:39:15.752Z,13.48
2023-01-18T13:42:02.844Z,13.13
2023-01-18T13:44:44.419Z,13.73
2023-01-18T13:47:30.363Z,12.52
2023-01-18T13:49:57.621Z,13.85
2023-01-18T13:52:31.426Z,13.05
2023-01-18T13:55:01.776Z,12.20
2023-01-18T13:57:30.248Z,12.43
2023-01-18T13:59:57.549Z,12.93
2023-01-18T14:02:28.406Z,13.45
2023-01-18T14:05:04.886Z,11.75
2023-01-18T14:07:38.453Z,12.95
2023-01-18T14:10:08.166Z,13.77
2023-01-18T14:12:55.264Z,12.20
2023-01-18T14:15:29.102Z,12.63
2023-01-18T14:17:58.783Z,12.02
2023-01-18T14:20:26.330Z,12.10
2023-01-18T14:23:10.957Z,11.65
2023-01-18T14:25:41.910Z,12.70
2023-01-18T14:28:11.228Z,10.90
2023-01-18T14:30:39.407Z,11.68
2023-01-18T14:33:09.361Z,11.77
2023-01-18T14:35:36.626Z,12.55
2023-01-18T14:38:17.392Z,12.23
2023-01-18T14:40:46.446Z,12.20
2023-01-18T14:43:24.342Z,12.10
2023-01-18T14:45:54.929Z,13.27
2023-01-18T14:48:23.546Z,12.93
2023-01-18T14:50:52.699Z,13.25
2023-01-18T14:53:27.625Z,13.07
2023-01-18T14:56:05.816Z,13.98
2023-01-18T14:58:35.572Z,12.95
2023-01-18T15:01:02.858Z,12.50
2023-01-18T15:03:31.807Z,13.43
2023-01-18T15:06:06.059Z,12.75
2023-01-18T15:08:34.576Z,14.35
2023-01-18T15:11:03.367Z,13.02
2023-01-18T15:13:30.615Z,14.15
2023-01-18T15:16:01.412Z,13.98
2023-01-18T15:18:29.765Z,13.90
2023-01-18T15:20:59.213Z,13.15
2023-01-18T15:23:27.228Z,13.63
2023-01-18T15:25:55.076Z,13.48
2023-01-18T15:28:24.433Z,11.43
2023-01-18T15:30:53.146Z,13.32
2023-01-18T15:33:21.334Z,13.25
2023-01-18T15:35:50.967Z,11.98
2023-01-18T15:38:18.073Z,12.32
2023-01-18T15:40:54.073Z,12.48
2023-01-18T15:43:28.556Z,13.48
2023-01-18T15:45:56.849Z,11.23
2023-01-18T15:48:25.255Z,11.82
2023-01-18T15:50:56.786Z,11.10
2023-01-18T15:53:31.323Z,10.93
2023-01-18T15:56:02.045Z,11.40
2023-01-18T15:58:41.454Z,12.18
2023-01-18T16:01:16.462Z,11.45
2023-01-18T16:03:46.415Z,11.80
2023-01-18T16:06:16.841Z,11.63
2023-01-18T16:09:00.359Z,11.03
2023-01-18T16:11:27.481Z,11.93
2023-01-18T16:13:58.973Z,10.65
2023-01-18T16:16:26.610Z,11.35
2023-01-18T16:19:05.662Z,11.25
2023-01-18T16:21:40.479Z,10.93
2023-01-18T16:24:34.089Z,10.63
2023-01-18T16:27:09.702Z,10.80
2023-01-18T16:29:43.793Z,10.98
2023-01-18T16:32:29.285Z,10.55
2023-01-18T16:34:58.522Z,11.32
2023-01-18T16:37:25.683Z,11.07
2023-01-18T16:39:54.470Z,10.98
2023-01-18T16:42:29.549Z,10.85
2023-01-18T16:45:04.653Z,10.63
2023-01-18T16:47:31.809Z,9.95
2023-01-18T16:49:59.344Z,10.57
2023-01-18T16:52:27.301Z,10.90
2023-01-18T16:54:54.461Z,11.25
2023-01-18T16:57:22.946Z,11.00
2023-01-18T16:59:51.024Z,10.90
2023-01-18T17:02:18.322Z,10.75
2023-01-18T17:04:46.535Z,11.48
2023-01-18T17:07:13.926Z,11.27
2023-01-18T17:09:48.363Z,10.57
2023-01-18T17:12:16.150Z,10.38
2023-01-18T17:14:43.341Z,10.82
2023-01-18T17:17:11.065Z,10.63
2023-01-18T17:19:38.236Z,10.43
2023-01-18T17:22:06.527Z,10.30
2023-01-18T17:24:33.698Z,10.27
2023-01-18T17:27:01.348Z,10.07
2023-01-18T17:29:28.513Z,10.43
2023-01-18T17:31:55.695Z,10.32
2023-01-18T17:34:27.994Z,10.23
2023-01-18T17:36:58.430Z,9.88
2023-01-18T17:39:37.053Z,10.10
2023-01-18T17:42:19.000Z,9.75
2023-01-18T17:44:49.751Z,10.82
2023-01-18T17:47:17.169Z,10.30
2023-01-18T17:49:44.267Z,9.30
2023-01-18T17:52:11.900Z,10.48
2023-01-18T17:54:39.065Z,10.73
2023-01-18T17:57:06.243Z,10.80
2023-01-18T17:59:33.351Z,11.32
2023-01-18T18:02:00.605Z,10.13
2023-01-18T18:04:27.706Z,10.85
2023-01-18T18:06:58.471Z,10.07
2023-01-18T18:09:26.325Z,12.70
2023-01-18T18:11:53.465Z,12.25
2023-01-18T18:14:20.659Z,11.48
2023-01-18T18:16:47.846Z,10.77
2023-01-18T18:19:15.056Z,11.43
2023-01-18T18:21:42.964Z,10.88
2023-01-18T18:24:10.180Z,10.70
2023-01-18T18:26:37.284Z,11.27
2023-01-18T18:29:04.374Z,10.90
2023-01-18T18:31:31.572Z,10.90
2023-01-18T18:33:58.674Z,10.50
2023-01-18T18:36:27.332Z,11.15
2023-01-18T18:38:54.656Z,10.27
2023-01-18T18:41:21.860Z,9.18
2023-01-18T18:43:48.999Z,11.00
2023-01-18T18:46:16.251Z,9.60
2023-01-18T18:48:43.666Z,10.88
2023-01-18T18:51:11.110Z,11.13
2023-01-18T18:53:40.557Z,10.93
2023-01-18T18:56:10.049Z,11.30
2023-01-18T18:58:37.683Z,11.57
2023-01-18T19:01:05.542Z,10.82
2023-01-18T19:03:33.371Z,11.40
2023-01-18T19:06:00.546Z,10.65
2023-01-18T19:08:27.772Z,11.10
2023-01-18T19:10:57.120Z,11.00
2023-01-18T19:13:24.187Z,10.13
2023-01-18T19:15:51.780Z,10.70
2023-01-18T19:18:19.225Z,11.25
2023-01-18T19:20:46.421Z,10.60
2023-01-18T19:23:13.639Z,11.07
2023-01-18T19:25:41.086Z,12.73
2023-01-18T19:28:08.374Z,11.27
2023-01-18T19:30:35.814Z,11.88
2023-01-18T19:33:03.594Z,11.90
2023-01-18T19:35:31.245Z,12.52
2023-01-18T19:38:00.963Z,13.02
2023-01-18T19:40:28.167Z,12.25
2023-01-18T19:42:55.788Z,12.48
2023-01-18T19:45:28.194Z,13.57
2023-01-18T19:47:56.306Z,12.15
2023-01-18T19:50:23.574Z,12.40
2023-01-18T19:52:50.953Z,11.90
2023-01-18T19:55:18.128Z,12.30
2023-01-18T19:57:45.689Z,12.80
2023-01-18T20:00:13.578Z,13.20
2023-01-18T20:02:41.615Z,12.32
2023-01-18T20:05:09.008Z,13.27
2023-01-18T20:07:38.643Z,13.77
2023-01-18T20:10:06.182Z,14.77
2023-01-18T20:12:33.745Z,13.60
2023-01-18T20:15:00.907Z,14.95
2023-01-18T20:17:27.997Z,14.10
2023-01-18T20:19:55.155Z,12.75
2023-01-18T20:22:22.675Z,13.20
2023-01-18T20:24:49.987Z,12.23
2023-01-18T20:27:17.613Z,12.93
2023-01-18T20:29:45.004Z,13.40
2023-01-18T20:32:16.799Z,13.82
2023-01-18T20:34:44.894Z,12.88
2023-01-18T20:37:12.722Z,13.75
2023-01-18T20:39:40.126Z,12.77
2023-01-18T20:42:07.275Z,13.68
2023-01-18T20:44:34.478Z,13.50
2023-01-18T20:47:01.794Z,13.02
2023-01-18T20:49:44.033Z,14.65
2023-01-18T20:52:11.175Z,14.38
2023-01-18T20:54:38.355Z,15.43
2023-01-18T20:57:06.152Z,15.90
2023-01-18T20:59:33.319Z,13.98
2023-01-18T21:02:00.859Z,14.68
2023-01-18T21:04:28.235Z,14.50
2023-01-18T21:06:57.243Z,13.40
2023-01-18T21:09:25.250Z,15.75
2023-01-18T21:11:52.377Z,14.40
2023-01-18T21:14:19.516Z,14.88
2023-01-18T21:16:46.955Z,14.40
2023-01-18T21:19:13.855Z,13.10
2023-01-18T21:21:40.557Z,15.52
2023-01-18T21:24:08.040Z,14.88
2023-01-18T21:26:36.080Z,14.98
2023-01-18T21:29:03.202Z,14.93
2023-01-18T21:31:30.359Z,14.55
2023-01-18T21:33:57.513Z,17.00
2023-01-18T21:36:24.655Z,16.50
2023-01-18T21:38:51.874Z,16.63
2023-01-18T21:41:37.704Z,17.08
2023-01-18T21:44:23.639Z,18.90
2023-01-18T21:46:51.975Z,18.38
2023-01-18T21:52:46.188Z,20.48
2023-01-18T21:55:15.389Z,19.33
2023-01-18T21:57:43.390Z,18.98
2023-01-18T22:00:11.289Z,20.45
2023-01-18T22:02:38.961Z,22.08
2023-01-18T22:05:08.466Z,21.17
2023-01-18T22:07:35.583Z,19.80
2023-01-18T22:10:06.070Z,20.55
2023-01-18T22:12:35.092Z,20.20
2023-01-18T22:15:03.114Z,18.52
2023-01-18T22:17:30.330Z,18.40
2023-01-18T22:19:57.505Z,18.08
2023-01-18T22:22:24.699Z,17.33
2023-01-18T22:24:51.864Z,16.52
2023-01-18T22:27:18.968Z,18.40
2023-01-18T22:29:46.110Z,17.75
2023-01-18T22:32:13.317Z,18.38
2023-01-18T22:34:40.433Z,19.70
2023-01-18T22:37:07.630Z,18.17
2023-01-18T22:39:34.782Z,18.88
2023-01-18T22:42:01.878Z,18.92
2023-01-18T22:44:29.025Z,19.73
2023-01-18T22:46:56.088Z,17.98
2023-01-18T22:49:23.192Z,20.98
2023-01-18T22:51:50.359Z,18.25
2023-01-18T22:54:22.215Z,17.67
2023-01-18T22:56:49.303Z,17.58
2023-01-18T22:59:16.482Z,18.33
2023-01-18T23:01:43.632Z,15.63
2023-01-18T23:04:10.751Z,13.88
2023-01-18T23:06:47.973Z,15.95
2023-01-18T23:09:15.954Z,14.25
2023-01-18T23:11:43.054Z,15.70
2023-01-18T23:14:28.953Z,16.17
2023-01-18T23:17:15.014Z,16.52
2023-01-18T23:19:42.215Z,15.93
2023-01-18T23:22:10.532Z,15.68
2023-01-18T23:24:38.186Z,14.68
2023-01-18T23:27:06.201Z,14.15
2023-01-18T23:29:33.397Z,14.98
2023-01-18T23:32:00.603Z,16.38
2023-01-18T23:34:27.786Z,16.50
2023-01-18T23:36:55.165Z,16.67
2023-01-18T23:39:41.332Z,19.52
2023-01-18T23:42:27.272Z,25.15
2023-01-18T23:45:13.398Z,29.98
2023-01-18T23:47:59.633Z,29.27
2023-01-18T23:50:45.812Z,28.55
2023-01-18T23:53:32.827Z,25.08
2023-01-18T23:56:00.326Z,27.05
2023-01-18T23:58:27.572Z,20.75
